Please be sure to check the latest weather conditions by clicking the link and viewing our local weather information!

Check Weather

Welcome to Lakeway Airpark (3R9)

FromTheAir

We’re a community airpark nestled within the town of Lakeway, Texas (17 miles northwest of downtown Austin).

Lakeway Airpark, Inc. was formed by Lakeway residents and interested parties to own and manage Lakeway Airpark (3R9).

The Airpark is a privately owned not for profit public use airport for residents and guests of Lakeway. No public funds are used and the airport is supported by fees and fuel sales at the airport.

Lakeway Airpark is an unmanned facility open for use from Sunrise to Sunset seven days a week. Takeoffs and landings are not permitted at night, between Sunset and Sunrise, by City Ordinance.

Quick Weather Info

Available data for KAUS from the past 2 hours
AUSTIN, TX
Metar
KAUS 111453Z 03009KT 10SM OVC013 07/03 A3053 RMK AO2 SLP345 T00670028 51019

14:53 UTC

Wind: 30° 9kt

Visibility: 10 SM

Sky: OVC 1300 ft

Temp: 7 deg C / 44.6 deg F

Dewpoint: 3 deg C / 37.4 deg F

Pressure: 30.53 inHg

TAF
KAUS 111138Z 1112/1218 36007KT P6SM OVC009 FM111600 02008KT P6SM BKN012 FM111700 03008KT P6SM SCT015 FM111800 04009KT P6SM SKC FM120700 09004KT P6SM BKN040 FM121200 13006KT P6SM BKN025
Pireps (2)
HYI UA /OV HYI/TM 1413/FL030/TP PA46T/SK OVC016-TOP027/SKC/RM DURD
ARP UAL1676 3016N 09743W 1410 F320 TB NONE SK ON TOP IC NONE